Pointe A La Hache, Louisiana
Current Conditions -  °F | °C
As of 2:55 AM on Thursday 23 Oct 2014 (Local Time) from KNBG Reporting Station
Clear Clear  
Wind Chill: 60°   Ceiling: Unl
Heat Index: 60°   Visibility: NA
Dew Point: 52°   Wind: 6mph
Humidity: 75%   Direction: 30°NNE
Pressure: 30.05"   Gusts: NA
Location:  29.58°N, 89.79°W
Report Text: KNBG 230755Z AUTO 03005KT CLR 16/11 A3005 RMK AO2 SLP175 T01560111 TSNO $
Loading
Personal Weather Stations






























Interactive Weather Map
Tropical Storm Tracking
New forecast layout! Learn more

10-Day Weather Forecast

Advertisements
Track Severe Weather on mobile